Time;durP1;ratioP1;P1;durP2;ratioP2;P2;SDS_P1;SDS_P2;PMS_P1;PMS_P2;Temp;Humidity;BMP_temperature;BMP_pressure;BME280_temperature;BME280_humidity;BME280_pressure;Samples;Min_cycle;Max_cycle;Signal;HPM_P1;HPM_P2
2022/06/22 00:02:00;;;;;;;;;;;17.00;70.10;;;;;;5136402;27;19915;-29
2022/06/22 00:04:27;;;;;;;;;;;17.00;70.20;;;;;;5136760;27;19903;-29
2022/06/22 00:06:55;;;;;;;;;;;16.90;70.20;;;;;;5136670;27;19946;-32
2022/06/22 00:09:32;;;;;;;;;;;16.90;70.30;;;;;;5136285;27;19911;-29
2022/06/22 00:11:57;;;;;;;;;;;16.80;70.20;;;;;;5134958;27;19962;-29
2022/06/22 00:14:32;;;;;;;;;;;16.90;70.10;;;;;;5136568;27;19989;-31
2022/06/22 00:16:58;;;;;;;;;;;16.80;70.10;;;;;;5136385;27;19910;-29
2022/06/22 00:19:31;;;;;;;;;;;16.80;70.20;;;;;;5136254;27;19952;-30
2022/06/22 00:21:57;;;;;;;;;;;16.70;70.10;;;;;;5135230;27;19995;-30
2022/06/22 00:24:22;;;;;;;;;;;16.70;70.20;;;;;;5136589;27;19999;-31
2022/06/22 00:26:53;;;;;;;;;;;16.70;70.40;;;;;;5136028;27;20327;-28
2022/06/22 00:29:20;;;;;;;;;;;16.70;70.60;;;;;;5135947;27;19903;-29
2022/06/22 00:31:49;;;;;;;;;;;16.60;70.50;;;;;;5135955;27;19915;-29
2022/06/22 00:34:14;;;;;;;;;;;16.60;70.50;;;;;;5135771;27;19911;-29
2022/06/22 00:36:46;;;;;;;;;;;16.60;70.50;;;;;;5136067;27;20252;-29
2022/06/22 00:39:17;;;;;;;;;;;16.50;70.60;;;;;;5135693;27;19903;-29
2022/06/22 00:41:46;;;;;;;;;;;16.50;70.50;;;;;;5135936;27;19907;-35
2022/06/22 00:44:12;;;;;;;;;;;16.50;70.50;;;;;;5135700;27;19904;-29
2022/06/22 00:46:43;;;;;;;;;;;16.50;70.50;;;;;;5135633;27;19910;-28
2022/06/22 00:49:10;;;;;;;;;;;16.50;70.70;;;;;;5135699;27;19910;-29
2022/06/22 00:51:37;;;;;;;;;;;16.50;70.70;;;;;;5135563;27;19903;-29
2022/06/22 00:54:04;;;;;;;;;;;16.40;70.70;;;;;;5135673;27;19907;-30
2022/06/22 00:56:36;;;;;;;;;;;16.40;70.90;;;;;;5135954;27;19972;-31
2022/06/22 00:59:04;;;;;;;;;;;16.30;71.00;;;;;;5135434;27;19918;-28
2022/06/22 01:01:38;;;;;;;;;;;16.30;71.10;;;;;;5135082;27;20282;-29
2022/06/22 01:04:06;;;;;;;;;;;16.30;71.40;;;;;;5135366;27;20278;-28
2022/06/22 01:06:38;;;;;;;;;;;16.20;71.20;;;;;;5135802;27;19910;-34
2022/06/22 01:09:03;;;;;;;;;;;16.20;71.20;;;;;;5135249;27;19910;-30
2022/06/22 01:17:50;;;;;;;;;;;16.10;71.50;;;;;;5135480;27;19934;-29
2022/06/22 01:20:21;;;;;;;;;;;16.10;71.60;;;;;;5135309;27;19926;-29
2022/06/22 01:23:25;;;;;;;;;;;16.00;71.60;;;;;;5134774;27;19974;-29
2022/06/22 01:25:55;;;;;;;;;;;16.00;71.70;;;;;;5051550;28;20276;-33
2022/06/22 01:28:22;;;;;;;;;;;16.00;71.80;;;;;;5052122;28;20372;-28
2022/06/22 01:30:54;;;;;;;;;;;16.00;71.70;;;;;;5092912;27;20376;-29
2022/06/22 01:33:33;;;;;;;;;;;16.00;71.80;;;;;;5134757;27;19911;-29
2022/06/22 01:36:00;;;;;;;;;;;16.00;71.80;;;;;;5134933;27;19935;-29
2022/06/22 01:38:30;;;;;;;;;;;16.00;71.90;;;;;;5134619;27;19998;-29
2022/06/22 01:41:14;;;;;;;;;;;15.90;72.20;;;;;;5134754;27;19907;-32
2022/06/22 01:43:45;;;;;;;;;;;15.90;72.40;;;;;;5134527;27;19903;-29
2022/06/22 01:46:14;;;;;;;;;;;15.80;72.70;;;;;;5134970;27;19911;-29
2022/06/22 01:48:43;;;;;;;;;;;15.80;72.90;;;;;;5134284;27;19946;-29
2022/06/22 01:51:08;;;;;;;;;;;15.70;72.90;;;;;;5134741;27;19903;-31
2022/06/22 01:53:37;;;;;;;;;;;15.80;73.00;;;;;;5134674;27;20226;-29
2022/06/22 01:56:08;;;;;;;;;;;15.70;73.00;;;;;;5134310;27;19904;-28
2022/06/22 01:58:50;;;;;;;;;;;15.70;72.90;;;;;;5134558;27;19914;-29
2022/06/22 02:01:20;;;;;;;;;;;15.70;72.80;;;;;;5134302;27;19923;-37
2022/06/22 02:03:52;;;;;;;;;;;15.70;72.90;;;;;;5134509;27;19942;-29
2022/06/22 02:09:23;;;;;;;;;;;15.60;73.00;;;;;;5134520;27;19990;-29
2022/06/22 02:12:18;;;;;;;;;;;15.60;73.00;;;;;;5134168;27;19914;-30
2022/06/22 02:14:40;;;;;;;;;;;15.60;73.10;;;;;;5133992;27;19960;-29
2022/06/22 02:17:07;;;;;;;;;;;15.50;73.10;;;;;;5134137;27;19954;-30
2022/06/22 02:19:35;;;;;;;;;;;15.50;73.20;;;;;;5134176;27;19936;-29
2022/06/22 02:22:01;;;;;;;;;;;15.50;73.50;;;;;;5134051;27;19919;-29
2022/06/22 02:24:29;;;;;;;;;;;15.50;73.80;;;;;;5133938;27;19937;-29
2022/06/22 02:26:57;;;;;;;;;;;15.50;73.80;;;;;;5134108;27;19968;-29
2022/06/22 02:29:28;;;;;;;;;;;15.40;74.00;;;;;;5133935;27;20440;-29
2022/06/22 02:31:57;;;;;;;;;;;15.40;74.00;;;;;;5134099;27;19908;-29
2022/06/22 02:34:23;;;;;;;;;;;15.40;74.40;;;;;;5134005;27;19952;-29
2022/06/22 02:36:50;;;;;;;;;;;15.30;74.80;;;;;;5133756;27;19915;-29
2022/06/22 02:39:17;;;;;;;;;;;15.30;75.10;;;;;;5134298;27;19915;-33
2022/06/22 02:44:29;;;;;;;;;;;15.20;75.90;;;;;;5133841;27;19988;-31
2022/06/22 02:46:56;;;;;;;;;;;15.20;76.00;;;;;;5137576;27;19908;-29
2022/06/22 02:49:24;;;;;;;;;;;15.10;76.00;;;;;;5137917;27;19914;-29
2022/06/22 02:51:50;;;;;;;;;;;15.10;76.00;;;;;;5137830;27;19908;-28
2022/06/22 02:54:30;;;;;;;;;;;15.10;76.00;;;;;;5137911;27;19923;-30
2022/06/22 02:57:10;;;;;;;;;;;15.10;75.80;;;;;;5137995;27;20393;-30
2022/06/22 02:59:36;;;;;;;;;;;15.10;75.70;;;;;;5137792;27;19928;-31
2022/06/22 03:02:02;;;;;;;;;;;15.10;75.60;;;;;;5137744;27;19915;-28
2022/06/22 03:04:28;;;;;;;;;;;15.10;75.60;;;;;;5137708;27;19915;-31
2022/06/22 03:06:54;;;;;;;;;;;15.10;75.70;;;;;;5137781;27;20003;-30
2022/06/22 03:09:20;;;;;;;;;;;15.10;75.80;;;;;;5137887;27;20338;-28
2022/06/22 03:11:48;;;;;;;;;;;15.00;75.80;;;;;;5137575;27;19914;-29
2022/06/22 03:14:17;;;;;;;;;;;15.00;75.90;;;;;;5136181;27;19954;-28
2022/06/22 03:16:44;;;;;;;;;;;15.00;75.90;;;;;;5137679;27;19913;-28
2022/06/22 03:19:15;;;;;;;;;;;15.00;76.00;;;;;;5137547;27;19914;-29
2022/06/22 03:21:41;;;;;;;;;;;15.00;76.10;;;;;;5137505;27;19922;-29
2022/06/22 03:24:17;;;;;;;;;;;14.90;76.50;;;;;;5137700;27;20308;-31
2022/06/22 03:26:46;;;;;;;;;;;14.90;76.60;;;;;;5137315;27;19907;-30
2022/06/22 03:29:32;;;;;;;;;;;14.90;76.50;;;;;;5137221;27;19998;-29
2022/06/22 03:32:04;;;;;;;;;;;14.90;76.70;;;;;;5136592;27;19993;-36
2022/06/22 03:34:33;;;;;;;;;;;14.90;76.70;;;;;;5137122;27;19907;-27
2022/06/22 03:37:16;;;;;;;;;;;14.90;76.60;;;;;;5137005;27;20006;-30
2022/06/22 03:39:43;;;;;;;;;;;14.90;76.40;;;;;;5136931;27;19914;-28
2022/06/22 03:42:11;;;;;;;;;;;14.90;76.30;;;;;;5136925;27;19918;-27
2022/06/22 03:44:40;;;;;;;;;;;14.90;76.30;;;;;;5136945;27;19913;-29
2022/06/22 03:47:28;;;;;;;;;;;14.90;76.10;;;;;;5136993;27;20021;-28
2022/06/22 03:49:54;;;;;;;;;;;14.90;76.10;;;;;;5137001;27;19908;-29
2022/06/22 03:52:22;;;;;;;;;;;15.00;76.00;;;;;;5136757;27;19908;-29
2022/06/22 03:55:01;;;;;;;;;;;15.00;75.80;;;;;;5136957;27;20253;-29
2022/06/22 03:57:29;;;;;;;;;;;15.10;75.80;;;;;;5135686;27;20010;-29
2022/06/22 03:59:55;;;;;;;;;;;15.10;75.60;;;;;;5136889;27;19914;-30
2022/06/22 04:02:22;;;;;;;;;;;15.10;75.50;;;;;;5135108;27;19911;-35
2022/06/22 04:04:52;;;;;;;;;;;15.10;75.60;;;;;;5136687;27;19918;-28
2022/06/22 04:07:18;;;;;;;;;;;15.10;75.50;;;;;;5136463;27;19915;-29
2022/06/22 04:09:48;;;;;;;;;;;15.10;75.40;;;;;;5136607;27;19914;-33
2022/06/22 04:12:17;;;;;;;;;;;15.10;75.40;;;;;;5136325;27;19922;-30
2022/06/22 04:15:08;;;;;;;;;;;15.20;75.40;;;;;;5134950;27;19912;-30
2022/06/22 04:17:36;;;;;;;;;;;15.20;75.40;;;;;;5134781;27;19998;-29
2022/06/22 04:20:04;;;;;;;;;;;15.10;75.40;;;;;;5136441;27;19911;-32
2022/06/22 04:22:32;;;;;;;;;;;15.10;75.50;;;;;;5136010;27;19922;-30
2022/06/22 04:25:01;;;;;;;;;;;15.10;75.50;;;;;;5136419;27;19960;-30
2022/06/22 04:27:27;;;;;;;;;;;15.10;75.60;;;;;;5136265;27;19908;-29
2022/06/22 04:29:59;;;;;;;;;;;15.10;75.60;;;;;;5135907;27;20896;-31
2022/06/22 04:32:27;;;;;;;;;;;15.10;75.60;;;;;;5135795;27;19999;-30
2022/06/22 04:35:07;;;;;;;;;;;15.10;75.60;;;;;;5134477;27;20339;-30
2022/06/22 04:37:36;;;;;;;;;;;15.10;75.50;;;;;;5136515;27;19907;-30
2022/06/22 04:40:14;;;;;;;;;;;15.10;75.80;;;;;;5136003;27;19911;-30
2022/06/22 04:42:39;;;;;;;;;;;15.10;75.80;;;;;;5135832;27;19925;-30
2022/06/22 04:45:05;;;;;;;;;;;15.20;75.90;;;;;;5135729;27;20006;-32
2022/06/22 04:47:33;;;;;;;;;;;15.20;75.80;;;;;;5135914;27;20286;-30
2022/06/22 04:50:04;;;;;;;;;;;15.20;75.80;;;;;;5135614;27;20002;-31
2022/06/22 04:52:31;;;;;;;;;;;15.20;75.80;;;;;;5135662;27;20327;-31
2022/06/22 04:54:58;;;;;;;;;;;15.20;75.70;;;;;;5135720;27;19980;-29
2022/06/22 04:57:25;;;;;;;;;;;15.30;75.60;;;;;;5135582;27;19914;-29
2022/06/22 04:59:51;;;;;;;;;;;15.30;76.00;;;;;;5136055;27;19935;-31
2022/06/22 05:02:19;;;;;;;;;;;15.30;75.60;;;;;;5135517;27;19938;-31
2022/06/22 05:04:48;;;;;;;;;;;15.40;75.60;;;;;;5135442;27;20027;-29
2022/06/22 05:07:22;;;;;;;;;;;15.40;75.60;;;;;;5135478;27;19907;-30
2022/06/22 05:09:52;;;;;;;;;;;15.50;75.40;;;;;;5134963;27;19918;-30
2022/06/22 05:12:19;;;;;;;;;;;15.50;75.40;;;;;;5134011;27;20374;-29
2022/06/22 05:14:45;;;;;;;;;;;15.50;75.40;;;;;;5135487;27;19914;-29
2022/06/22 05:17:30;;;;;;;;;;;15.60;75.50;;;;;;5135238;27;19908;-29
2022/06/22 05:20:04;;;;;;;;;;;15.60;75.40;;;;;;5135065;27;20270;-43
2022/06/22 05:22:29;;;;;;;;;;;15.70;76.00;;;;;;5133638;27;19915;-43
2022/06/22 05:24:58;;;;;;;;;;;15.70;75.40;;;;;;5135001;27;19907;-45
2022/06/22 05:27:26;;;;;;;;;;;15.80;75.30;;;;;;5135042;27;19908;-44
2022/06/22 05:29:56;;;;;;;;;;;15.80;75.30;;;;;;5134865;27;19956;-44
2022/06/22 05:32:40;;;;;;;;;;;15.80;75.10;;;;;;5134779;27;19907;-43
2022/06/22 05:35:14;;;;;;;;;;;15.90;75.20;;;;;;5135241;27;19949;-44
2022/06/22 05:37:43;;;;;;;;;;;15.90;75.10;;;;;;5135168;27;19922;-43
2022/06/22 05:40:10;;;;;;;;;;;16.00;74.90;;;;;;5134677;27;19907;-43
2022/06/22 05:42:35;;;;;;;;;;;16.00;74.70;;;;;;5134523;27;19911;-41
2022/06/22 05:45:01;;;;;;;;;;;16.10;74.60;;;;;;5134536;27;20010;-48
2022/06/22 05:47:29;;;;;;;;;;;16.10;74.40;;;;;;5134605;27;19911;-45
2022/06/22 05:49:58;;;;;;;;;;;16.20;74.30;;;;;;5134785;27;19962;-42
2022/06/22 05:52:35;;;;;;;;;;;16.20;74.20;;;;;;5134254;27;19907;-42
2022/06/22 05:55:06;;;;;;;;;;;16.30;74.20;;;;;;5134517;27;19933;-44
2022/06/22 05:57:36;;;;;;;;;;;16.30;74.00;;;;;;5134043;27;19990;-39
2022/06/22 06:00:05;;;;;;;;;;;16.40;73.90;;;;;;5134673;27;20362;-44
2022/06/22 06:02:39;;;;;;;;;;;16.40;73.70;;;;;;5133679;27;19912;-42
2022/06/22 06:05:07;;;;;;;;;;;16.50;73.60;;;;;;5133939;27;19998;-44
2022/06/22 06:07:46;;;;;;;;;;;16.60;73.50;;;;;;5133643;27;19930;-43
2022/06/22 06:10:27;;;;;;;;;;;16.60;73.40;;;;;;5134161;27;19907;-43
2022/06/22 06:12:56;;;;;;;;;;;16.70;73.30;;;;;;5133926;27;19907;-43
2022/06/22 06:15:22;;;;;;;;;;;16.80;73.10;;;;;;5132667;27;19907;-44
2022/06/22 06:17:49;;;;;;;;;;;16.80;73.00;;;;;;5134341;27;19975;-43
2022/06/22 06:20:20;;;;;;;;;;;16.90;72.90;;;;;;5133380;27;19907;-43
2022/06/22 06:22:46;;;;;;;;;;;17.00;72.90;;;;;;5134170;27;19926;-42
2022/06/22 06:28:02;;;;;;;;;;;17.10;72.50;;;;;;5134145;28;19914;-42
2022/06/22 06:30:30;;;;;;;;;;;17.10;72.40;;;;;;5134208;27;19914;-43
2022/06/22 06:33:02;;;;;;;;;;;17.20;72.20;;;;;;5132456;28;19972;-44
2022/06/22 06:35:30;;;;;;;;;;;17.20;72.10;;;;;;5133876;27;19960;-43
2022/06/22 06:38:14;;;;;;;;;;;17.30;71.90;;;;;;5133806;27;19907;-46
2022/06/22 06:40:54;;;;;;;;;;;17.30;71.70;;;;;;5133892;28;19950;-43
2022/06/22 06:43:38;;;;;;;;;;;17.40;71.50;;;;;;5133566;27;19919;-43
2022/06/22 06:46:29;;;;;;;;;;;17.50;71.40;;;;;;5133775;28;20362;-43
2022/06/22 06:48:58;;;;;;;;;;;17.50;71.20;;;;;;5129546;27;19956;-43
2022/06/22 06:51:25;;;;;;;;;;;17.60;71.00;;;;;;5133691;27;19911;-42
2022/06/22 06:53:54;;;;;;;;;;;17.70;71.00;;;;;;5132345;28;19908;-44
2022/06/22 06:56:29;;;;;;;;;;;17.70;70.70;;;;;;5132241;28;19907;-42
2022/06/22 06:59:00;;;;;;;;;;;17.80;70.70;;;;;;5133496;27;20474;-44
2022/06/22 07:01:27;;;;;;;;;;;17.90;70.40;;;;;;5133754;27;19961;-44
2022/06/22 07:03:58;;;;;;;;;;;18.00;70.10;;;;;;5133881;27;20347;-44
2022/06/22 07:06:25;;;;;;;;;;;18.10;69.90;;;;;;5133734;27;19908;-44
2022/06/22 07:08:59;;;;;;;;;;;18.10;69.60;;;;;;5133650;27;19911;-45
2022/06/22 07:11:35;;;;;;;;;;;18.10;69.50;;;;;;5134082;27;19914;-46
2022/06/22 07:14:03;;;;;;;;;;;18.20;69.50;;;;;;5132961;28;20005;-44
2022/06/22 07:16:28;;;;;;;;;;;18.30;69.40;;;;;;5133617;27;20366;-47
2022/06/22 07:19:00;;;;;;;;;;;18.30;69.10;;;;;;5133701;27;19933;-45
2022/06/22 07:21:40;;;;;;;;;;;18.40;68.40;;;;;;5133638;27;20397;-43
2022/06/22 07:24:11;;;;;;;;;;;18.50;68.40;;;;;;5133735;27;19954;-42
2022/06/22 07:26:46;;;;;;;;;;;18.60;68.50;;;;;;5133682;27;20129;-42
2022/06/22 07:29:22;;;;;;;;;;;18.60;68.30;;;;;;5133807;27;19923;-44
2022/06/22 07:31:58;;;;;;;;;;;18.70;68.20;;;;;;5135531;27;20024;-44
2022/06/22 07:34:43;;;;;;;;;;;18.80;68.00;;;;;;5137556;27;19908;-44
2022/06/22 07:37:16;;;;;;;;;;;18.90;67.90;;;;;;5136578;27;20002;-44
2022/06/22 07:39:44;;;;;;;;;;;19.00;67.70;;;;;;5137297;27;20001;-44
2022/06/22 07:42:11;;;;;;;;;;;19.10;67.50;;;;;;5137179;27;19912;-42
2022/06/22 07:44:37;;;;;;;;;;;19.20;67.20;;;;;;5137099;27;19908;-39
2022/06/22 07:47:09;;;;;;;;;;;19.30;67.00;;;;;;5137163;27;19907;-42
2022/06/22 07:49:41;;;;;;;;;;;19.40;66.80;;;;;;5137180;27;19915;-44
2022/06/22 07:52:11;;;;;;;;;;;19.40;66.60;;;;;;5137299;27;19908;-43
2022/06/22 07:54:40;;;;;;;;;;;19.50;66.50;;;;;;5136958;27;20345;-42
2022/06/22 07:57:05;;;;;;;;;;;19.60;66.40;;;;;;5137382;27;19907;-44
2022/06/22 07:59:37;;;;;;;;;;;19.70;65.50;;;;;;5136882;27;19913;-43
2022/06/22 08:02:04;;;;;;;;;;;19.80;65.60;;;;;;5136778;27;19957;-44
2022/06/22 08:04:32;;;;;;;;;;;19.80;65.50;;;;;;5136814;27;20251;-44
2022/06/22 08:07:16;;;;;;;;;;;19.90;65.40;;;;;;5136697;27;20006;-44
2022/06/22 08:09:55;;;;;;;;;;;20.00;65.20;;;;;;5136653;27;19954;-44
2022/06/22 08:12:53;;;;;;;;;;;20.00;65.10;;;;;;5136672;27;20278;-43
2022/06/22 08:15:20;;;;;;;;;;;20.10;65.00;;;;;;5137344;27;19908;-44
2022/06/22 08:17:50;;;;;;;;;;;20.20;64.70;;;;;;5136288;27;19908;-44
2022/06/22 08:20:18;;;;;;;;;;;20.30;64.20;;;;;;5136722;27;19907;-43
2022/06/22 08:22:45;;;;;;;;;;;20.30;63.70;;;;;;5136716;27;19922;-44
2022/06/22 08:25:11;;;;;;;;;;;20.30;63.70;;;;;;5136731;27;19950;-44
2022/06/22 08:27:37;;;;;;;;;;;20.30;64.50;;;;;;5136236;27;19907;-44
2022/06/22 08:30:03;;;;;;;;;;;20.40;63.80;;;;;;5136221;27;20002;-44
2022/06/22 08:33:04;;;;;;;;;;;20.40;63.50;;;;;;5136338;27;20018;-44
2022/06/22 08:35:50;;;;;;;;;;;20.50;62.90;;;;;;5052842;28;19921;-42
2022/06/22 08:38:20;;;;;;;;;;;20.50;61.40;;;;;;5129585;27;19907;-41
2022/06/22 08:41:04;;;;;;;;;;;20.60;60.30;;;;;;5135917;27;20251;-45
2022/06/22 08:43:32;;;;;;;;;;;20.60;61.20;;;;;;5135223;27;19911;-44
2022/06/22 08:46:06;;;;;;;;;;;20.60;61.30;;;;;;5136026;27;19935;-44
2022/06/22 08:48:39;;;;;;;;;;;20.70;61.10;;;;;;5134675;27;19914;-45
2022/06/22 08:51:32;;;;;;;;;;;20.80;61.00;;;;;;5136664;27;19914;-44
2022/06/22 08:54:16;;;;;;;;;;;20.80;60.90;;;;;;5135860;27;20423;-44
2022/06/22 08:56:54;;;;;;;;;;;20.90;60.50;;;;;;5135584;27;20014;-45
2022/06/22 08:59:32;;;;;;;;;;;20.90;60.10;;;;;;5135729;27;19913;-44
2022/06/22 09:02:18;;;;;;;;;;;21.00;60.00;;;;;;5135430;27;19912;-45
2022/06/22 09:04:46;;;;;;;;;;;21.00;59.30;;;;;;5135697;27;19929;-45
2022/06/22 09:07:14;;;;;;;;;;;21.10;59.70;;;;;;5135454;27;19914;-45
2022/06/22 09:09:43;;;;;;;;;;;21.10;59.50;;;;;;5135408;27;19907;-46
2022/06/22 09:12:46;;;;;;;;;;;21.10;57.40;;;;;;5135273;27;19914;-44
2022/06/22 09:15:20;;;;;;;;;;;21.20;58.20;;;;;;5052049;28;20000;-44
2022/06/22 09:17:48;;;;;;;;;;;21.30;58.30;;;;;;5052087;28;19908;-44
2022/06/22 09:20:28;;;;;;;;;;;21.30;58.40;;;;;;5096601;27;20264;-42
2022/06/22 09:23:08;;;;;;;;;;;21.30;57.50;;;;;;5135643;27;20018;-44
2022/06/22 09:25:45;;;;;;;;;;;21.40;55.60;;;;;;5135687;27;20376;-43
2022/06/22 09:28:22;;;;;;;;;;;21.40;56.10;;;;;;5134977;27;19908;-44
2022/06/22 09:30:47;;;;;;;;;;;21.50;56.70;;;;;;5134973;27;20013;-44
2022/06/22 09:33:29;;;;;;;;;;;21.50;55.20;;;;;;5134810;27;19958;-44
2022/06/22 09:36:05;;;;;;;;;;;21.50;54.20;;;;;;5134742;27;19907;-44
2022/06/22 09:38:33;;;;;;;;;;;21.60;55.10;;;;;;5135252;27;20289;-44
2022/06/22 09:41:05;;;;;;;;;;;21.60;54.60;;;;;;5134997;27;19907;-44
2022/06/22 09:43:48;;;;;;;;;;;21.70;54.60;;;;;;5134965;27;19987;-44
2022/06/22 09:46:16;;;;;;;;;;;21.70;54.40;;;;;;5133519;27;19938;-45
2022/06/22 09:48:54;;;;;;;;;;;21.80;54.50;;;;;;5135006;27;20255;-44
2022/06/22 09:51:42;;;;;;;;;;;21.80;54.90;;;;;;5134751;27;19914;-45
2022/06/22 09:54:08;;;;;;;;;;;21.90;54.50;;;;;;5123194;27;20319;-45
2022/06/22 09:56:33;;;;;;;;;;;22.00;54.80;;;;;;5134072;27;19942;-45
2022/06/22 09:59:00;;;;;;;;;;;22.10;52.90;;;;;;5134932;27;19911;-45
2022/06/22 10:01:25;;;;;;;;;;;22.10;50.50;;;;;;5134270;27;19907;-45
2022/06/22 10:04:10;;;;;;;;;;;22.10;52.10;;;;;;5134512;27;20355;-45
2022/06/22 10:06:49;;;;;;;;;;;22.10;52.00;;;;;;5133109;27;19903;-44
2022/06/22 10:09:40;;;;;;;;;;;22.20;52.40;;;;;;5134877;27;19955;-44
2022/06/22 10:12:14;;;;;;;;;;;22.30;52.20;;;;;;5134642;27;19903;-43
2022/06/22 10:14:46;;;;;;;;;;;22.30;52.20;;;;;;5134603;27;19903;-44
2022/06/22 10:17:20;;;;;;;;;;;22.40;51.90;;;;;;5134602;27;19903;-43
2022/06/22 10:19:52;;;;;;;;;;;22.50;52.10;;;;;;5134824;27;19903;-44
2022/06/22 10:22:17;;;;;;;;;;;22.50;52.20;;;;;;5134218;27;20395;-43
2022/06/22 10:24:58;;;;;;;;;;;22.60;52.00;;;;;;5134253;27;19904;-44
2022/06/22 10:27:26;;;;;;;;;;;22.70;50.20;;;;;;5134219;27;20060;-47
2022/06/22 10:29:57;;;;;;;;;;;22.70;51.40;;;;;;5134112;27;19904;-44
2022/06/22 10:32:40;;;;;;;;;;;22.80;51.90;;;;;;5134166;27;19903;-44
2022/06/22 10:35:13;;;;;;;;;;;22.80;51.00;;;;;;5134212;27;19939;-44
2022/06/22 10:37:59;;;;;;;;;;;22.90;49.90;;;;;;5134162;27;19903;-44
2022/06/22 10:46:21;;;;;;;;;;;23.00;49.90;;;;;;5133979;28;20226;-44
2022/06/22 10:49:15;;;;;;;;;;;23.00;50.20;;;;;;5134023;27;19956;-43
2022/06/22 10:51:56;;;;;;;;;;;23.00;50.00;;;;;;5134446;27;19980;-44
2022/06/22 10:54:22;;;;;;;;;;;23.10;50.20;;;;;;5134332;27;19996;-43
2022/06/22 10:57:05;;;;;;;;;;;23.20;50.00;;;;;;5134217;27;20002;-43
2022/06/22 10:59:49;;;;;;;;;;;23.30;50.20;;;;;;5134201;27;19915;-44
2022/06/22 11:02:14;;;;;;;;;;;23.40;50.50;;;;;;5133773;28;19916;-44
2022/06/22 11:04:59;;;;;;;;;;;23.50;50.20;;;;;;5133832;27;20244;-43
2022/06/22 11:07:40;;;;;;;;;;;23.60;48.80;;;;;;5136748;27;19903;-43
2022/06/22 11:10:15;;;;;;;;;;;23.60;48.50;;;;;;5137864;27;19961;-44
2022/06/22 11:12:59;;;;;;;;;;;23.60;47.90;;;;;;5137728;27;19910;-44
2022/06/22 11:15:40;;;;;;;;;;;23.60;47.50;;;;;;5137938;27;20392;-44
2022/06/22 11:18:16;;;;;;;;;;;23.70;48.00;;;;;;5137883;27;19903;-44
2022/06/22 11:20:50;;;;;;;;;;;23.80;48.00;;;;;;5137873;27;19907;-43
2022/06/22 11:23:33;;;;;;;;;;;23.80;47.60;;;;;;5137565;27;19911;-45
2022/06/22 11:31:58;;;;;;;;;;;23.90;46.10;;;;;;5138013;27;20316;-43
2022/06/22 11:34:23;;;;;;;;;;;24.00;46.30;;;;;;5137729;27;20350;-46
2022/06/22 11:37:00;;;;;;;;;;;24.00;46.10;;;;;;5137408;27;19911;-44
2022/06/22 11:39:37;;;;;;;;;;;24.00;45.70;;;;;;5137246;27;19952;-44
2022/06/22 11:42:21;;;;;;;;;;;24.10;45.60;;;;;;5137391;27;19907;-43
2022/06/22 11:47:58;;;;;;;;;;;24.30;45.30;;;;;;5137469;27;19911;-44
2022/06/22 11:50:40;;;;;;;;;;;24.40;45.80;;;;;;5137238;27;19903;-44
2022/06/22 11:53:24;;;;;;;;;;;24.50;45.40;;;;;;5137182;27;20373;-44
2022/06/22 11:55:53;;;;;;;;;;;24.50;45.20;;;;;;5136710;27;19910;-44
2022/06/22 11:58:31;;;;;;;;;;;24.50;45.70;;;;;;5136844;27;20359;-44
2022/06/22 12:01:01;;;;;;;;;;;24.60;45.70;;;;;;5137109;27;19903;-44
2022/06/22 12:03:39;;;;;;;;;;;24.70;46.20;;;;;;5136829;27;19915;-44
2022/06/22 12:06:23;;;;;;;;;;;24.70;45.80;;;;;;5137210;27;19903;-44
2022/06/22 12:09:02;;;;;;;;;;;24.90;45.80;;;;;;5136690;27;19910;-44
2022/06/22 12:11:30;;;;;;;;;;;25.00;46.00;;;;;;5136540;27;19907;-45
2022/06/22 12:17:08;;;;;;;;;;;25.20;45.50;;;;;;5136459;27;20325;-44
2022/06/22 12:19:52;;;;;;;;;;;25.30;45.60;;;;;;5136198;27;19910;-45
2022/06/22 12:22:27;;;;;;;;;;;25.50;45.80;;;;;;5136786;27;19922;-43
2022/06/22 12:25:11;;;;;;;;;;;25.70;45.90;;;;;;5137097;27;20363;-45
2022/06/22 12:27:41;;;;;;;;;;;25.90;46.00;;;;;;5136451;27;19963;-44
2022/06/22 12:30:25;;;;;;;;;;;26.10;46.00;;;;;;5136796;27;19903;-45
2022/06/22 12:32:51;;;;;;;;;;;26.30;46.10;;;;;;5136639;27;19910;-45
2022/06/22 12:35:32;;;;;;;;;;;26.40;46.00;;;;;;5136648;27;19903;-44
2022/06/22 12:38:05;;;;;;;;;;;26.60;46.10;;;;;;5136774;27;19904;-43
2022/06/22 12:40:39;;;;;;;;;;;26.80;46.20;;;;;;5136577;27;19910;-45
2022/06/22 12:43:04;;;;;;;;;;;26.90;46.00;;;;;;5136232;27;19908;-44
2022/06/22 12:45:48;;;;;;;;;;;27.00;45.80;;;;;;5136210;27;19910;-44
2022/06/22 12:48:37;;;;;;;;;;;27.10;45.60;;;;;;5136509;27;19903;-44
2022/06/22 12:51:41;;;;;;;;;;;27.20;45.80;;;;;;5136351;27;19903;-46
2022/06/22 12:54:06;;;;;;;;;;;27.30;45.70;;;;;;5052917;28;19905;-44
2022/06/22 12:56:36;;;;;;;;;;;27.50;45.80;;;;;;5053060;28;19931;-44
2022/06/22 12:59:08;;;;;;;;;;;27.60;45.70;;;;;;5093524;27;19904;-46
2022/06/22 13:01:35;;;;;;;;;;;27.70;45.50;;;;;;5135751;27;19923;-44
2022/06/22 13:04:05;;;;;;;;;;;27.70;45.50;;;;;;5136127;27;19907;-48
2022/06/22 13:06:32;;;;;;;;;;;27.90;45.70;;;;;;5135786;27;19904;-44
2022/06/22 13:08:58;;;;;;;;;;;28.00;45.50;;;;;;5135942;27;19903;-44
2022/06/22 13:11:25;;;;;;;;;;;28.10;45.50;;;;;;5136060;27;19956;-44
2022/06/22 13:13:56;;;;;;;;;;;28.20;45.30;;;;;;5136619;27;19903;-44
2022/06/22 13:16:40;;;;;;;;;;;28.30;45.30;;;;;;5136409;27;19903;-45
2022/06/22 13:19:06;;;;;;;;;;;28.40;45.20;;;;;;5135913;27;19903;-45
2022/06/22 13:21:32;;;;;;;;;;;28.60;45.30;;;;;;5136051;27;19911;-44
2022/06/22 13:24:00;;;;;;;;;;;28.70;45.20;;;;;;5135775;27;19926;-43
2022/06/22 13:26:41;;;;;;;;;;;28.80;44.90;;;;;;5136162;27;20351;-44
2022/06/22 13:29:27;;;;;;;;;;;28.90;45.00;;;;;;5135476;27;19951;-45
2022/06/22 13:31:56;;;;;;;;;;;28.90;44.80;;;;;;5135444;27;19903;-45
2022/06/22 13:34:24;;;;;;;;;;;28.90;44.30;;;;;;5135318;27;19903;-45
2022/06/22 13:36:52;;;;;;;;;;;29.00;44.40;;;;;;5135322;27;19903;-45
2022/06/22 13:39:36;;;;;;;;;;;29.10;44.40;;;;;;5135420;27;19903;-42
2022/06/22 13:42:10;;;;;;;;;;;29.20;44.30;;;;;;5135254;27;20010;-45
2022/06/22 13:44:45;;;;;;;;;;;29.30;44.20;;;;;;5135093;27;19986;-44
2022/06/22 13:47:24;;;;;;;;;;;29.40;44.20;;;;;;5135016;27;19994;-45
2022/06/22 13:50:14;;;;;;;;;;;29.50;44.20;;;;;;5133665;27;20010;-45
2022/06/22 13:52:42;;;;;;;;;;;29.50;43.80;;;;;;5134732;27;19910;-45
2022/06/22 13:55:22;;;;;;;;;;;29.60;43.60;;;;;;5134998;27;19946;-44
2022/06/22 13:57:57;;;;;;;;;;;29.60;43.60;;;;;;5134859;27;20003;-46
2022/06/22 14:00:25;;;;;;;;;;;29.80;43.70;;;;;;5135128;27;19915;-45
2022/06/22 14:03:06;;;;;;;;;;;29.90;43.30;;;;;;5134404;27;19918;-44
2022/06/22 14:05:37;;;;;;;;;;;30.00;43.30;;;;;;5134979;27;19904;-44
2022/06/22 14:08:09;;;;;;;;;;;30.00;43.30;;;;;;5135105;27;19911;-45
2022/06/22 14:10:36;;;;;;;;;;;30.20;43.40;;;;;;5134982;27;20322;-45
2022/06/22 14:13:08;;;;;;;;;;;30.20;43.30;;;;;;5134770;27;19903;-45
2022/06/22 14:15:56;;;;;;;;;;;30.30;43.10;;;;;;5134402;27;20414;-45
2022/06/22 14:18:28;;;;;;;;;;;30.40;42.60;;;;;;5123189;27;19994;-45
2022/06/22 14:21:09;;;;;;;;;;;30.40;42.90;;;;;;5134283;27;19907;-45
2022/06/22 14:23:37;;;;;;;;;;;30.40;42.70;;;;;;5134360;27;19911;-45
2022/06/22 14:26:21;;;;;;;;;;;30.50;42.60;;;;;;5134945;27;19945;-46
2022/06/22 14:28:53;;;;;;;;;;;30.50;42.60;;;;;;5134393;27;19922;-46
2022/06/22 14:31:23;;;;;;;;;;;30.60;42.80;;;;;;5134443;27;19904;-46
2022/06/22 14:34:08;;;;;;;;;;;30.60;42.20;;;;;;5134103;27;19903;-45
2022/06/22 14:36:35;;;;;;;;;;;30.60;42.30;;;;;;5134248;27;19911;-45
2022/06/22 14:39:19;;;;;;;;;;;30.60;42.30;;;;;;5134465;27;19910;-45
2022/06/22 14:41:50;;;;;;;;;;;30.80;42.20;;;;;;5135926;27;19907;-45
2022/06/22 14:44:34;;;;;;;;;;;30.90;42.20;;;;;;5138746;27;19911;-47
2022/06/22 14:47:08;;;;;;;;;;;31.00;42.70;;;;;;5138564;27;19903;-44
2022/06/22 14:49:34;;;;;;;;;;;31.10;42.20;;;;;;5138226;27;19904;-47
2022/06/22 14:52:03;;;;;;;;;;;31.10;42.00;;;;;;5138334;27;19903;-46
2022/06/22 14:54:38;;;;;;;;;;;31.20;42.10;;;;;;5138339;27;20300;-45
2022/06/22 14:57:22;;;;;;;;;;;31.20;42.00;;;;;;5138290;27;19998;-46
2022/06/22 15:00:06;;;;;;;;;;;31.30;41.60;;;;;;5137972;27;19985;-45
2022/06/22 15:02:44;;;;;;;;;;;31.30;41.80;;;;;;5136438;27;19911;-45
2022/06/22 15:05:15;;;;;;;;;;;31.40;41.30;;;;;;5138060;27;19910;-45
2022/06/22 15:07:49;;;;;;;;;;;31.30;41.00;;;;;;5138553;27;19903;-45
2022/06/22 15:10:24;;;;;;;;;;;31.30;41.20;;;;;;5138436;27;20009;-46
2022/06/22 15:13:02;;;;;;;;;;;31.40;40.90;;;;;;5138436;27;19903;-46
2022/06/22 15:15:39;;;;;;;;;;;31.40;41.00;;;;;;5138004;27;19908;-44
2022/06/22 15:18:23;;;;;;;;;;;31.50;41.00;;;;;;5138589;27;19910;-42
2022/06/22 15:20:51;;;;;;;;;;;31.70;40.90;;;;;;5137744;27;20001;-43
2022/06/22 15:23:19;;;;;;;;;;;31.80;40.90;;;;;;5137816;27;20367;-44